Bucktown, Indiana
Current Conditions -  °F | °C
As of 2:55 AM on Wednesday 26 Nov 2014 (Local Time) from KRSV Reporting Station
Clear Clear  
Wind Chill: 24°   Ceiling: Unl
Heat Index: 24°   Visibility: 10mi
Dew Point: 22°   Wind: 3mph
Humidity: 93%   Direction: 100°E
Pressure: 30.18"   Gusts: NA
Location:  38.9636°N, 87.3568°W
Report Text: KRSV 260755Z AUTO 10003KT 10SM CLR M05/M06 A3018 RMK AO2 T10461056
Loading
Personal Weather Stations






























Interactive Weather Map New forecast layout! Learn more

10-Day Weather Forecast

Advertisements
Track Severe Weather on mobile